Weather forecast for Bulen (Булен)

Russia, 519 m
N52.847, E104.807


Sounding

Red line — air temperature ˚C.
Blue line — thermal bubble temperature ˚C.
Green line — dew point temperature ˚C.
Wind speed is in meters per second.

Table forecast

GFS 0.25˚ model

temp. wind gust humid. clouds prec. press. hpbl
Wed18 00:00 5 71.0 ene 2 3 77 0 0.0 1023 22
03:00 4 71.0 ene 2 3 84 0 0.0 1022 25
06:00 4 64.0 ene 3 3 79 93 0.0 1021 56
09:00 6 76.0 ene 2 3 70 96 0.0 1020 89
12:00 13 223.0 sw 2 3 58 98 0.0 1019 493
15:00 18 262.0 w 3 5 50 96 0.0 1018 941
18:00 18 301.0 wnw 3 5 50 81 0.0 1017 1101
21:00 11 275.0 w 1 1 77 45 0.0 1019 23
 
Thu19 00:00 10 323.0 nw 2 3 81 37 0.0 1020 36
03:00 10 118.0 ese 1 1 94 68 1.1 1021 24
06:00 9 255.0 wsw 2 4 97 100 1.9 1022 149
09:00 9 249.0 wsw 3 5 97 100 2.9 1023 246
12:00 12 269.0 w 3 4 82 100 0.0 1023 532
15:00 14 255.0 wsw 3 4 71 99 0.1 1022 854
18:00 15 252.0 wsw 4 6 68 56 0.2 1021 999
21:00 10 238.0 wsw 2 2 88 28 0.3 1022 22
 
Fri20 00:00 8 231.0 sw 1 1 89 0 0.0 1023 22
03:00 7 163.0 sse 1 1 91 0 0.0 1023 22
06:00 7 91.0 e 1 1 91 76 0.0 1023 22
09:00 9 89.0 e 1 1 86 67 0.0 1023 31
12:00 15 168.0 sse 2 3 57 67 0.0 1021 429
15:00 20 215.0 sw 3 3 46 67 0.0 1019 835
18:00 20 192.0 ssw 1 2 45 0 0.0 1018 1027
21:00 13 119.0 ese 1 2 66 0 0.0 1019 23
 
Sat21 00:00 10 103.0 ese 1 1 80 0 0.0 1019 22
03:00 8 76.0 ene 2 2 77 15 0.0 1018 22
06:00 8 73.0 ene 2 2 77 22 0.0 1018 22
09:00 10 74.0 ene 2 2 78 17 0.0 1019 46
12:00 18 160.0 sse 2 4 54 24 0.0 1017 536
15:00 22 205.0 ssw 2 3 43 40 0.0 1015 733
18:00 22 220.0 sw 2 2 47 50 0.0 1016 542
21:00 14 161.0 sse 1 1 73 27 0.0 1018 23
 
Sun22 00:00 11 235.0 sw 2 3 78 23 0.0 1021 22
03:00 8 182.0 s 1 1 92 11 0.0 1023 25
06:00 7 92.0 e 1 1 95 7 0.0 1023 22
09:00 8 253.0 wsw 1 1 91 12 0.0 1024 58
12:00 14 206.0 ssw 1 0 69 97 0.0 1024 389
15:00 18 127.0 se 1 1 56 77 0.0 1022 769
18:00 18 134.0 se 2 2 54 1 0.0 1022 786
21:00 12 104.0 ese 1 1 77 1 0.0 1022 23
 

0.026 s